createdAt,value
2023-05-21T00:00:53.814Z,18.20
2023-05-21T00:03:21.142Z,17.90
2023-05-21T00:05:50.115Z,18.00
2023-05-21T00:08:16.871Z,18.10
2023-05-21T00:10:43.661Z,17.90
2023-05-21T00:13:10.623Z,17.80
2023-05-21T00:15:37.600Z,18.20
2023-05-21T00:18:04.912Z,18.00
2023-05-21T00:20:32.339Z,18.10
2023-05-21T00:22:59.786Z,18.40
2023-05-21T00:25:33.675Z,18.10
2023-05-21T00:28:00.299Z,17.90
2023-05-21T00:30:26.977Z,18.00
2023-05-21T00:32:53.556Z,18.10
2023-05-21T00:35:20.218Z,18.30
2023-05-21T00:37:47.640Z,18.40
2023-05-21T00:40:14.602Z,18.40
2023-05-21T00:42:41.590Z,18.50
2023-05-21T00:45:08.945Z,18.60
2023-05-21T00:47:35.856Z,18.60
2023-05-21T00:50:04.040Z,18.40
2023-05-21T00:52:31.108Z,18.10
2023-05-21T00:54:58.102Z,18.10
2023-05-21T00:57:27.003Z,18.10
2023-05-21T00:59:53.682Z,18.30
2023-05-21T01:02:20.835Z,18.40
2023-05-21T01:04:47.522Z,18.10
2023-05-21T01:07:14.580Z,18.20
2023-05-21T01:09:42.909Z,18.40
2023-05-21T01:12:09.866Z,18.00
2023-05-21T01:14:37.523Z,17.60
2023-05-21T01:17:05.494Z,17.60
2023-05-21T01:19:32.785Z,17.50
2023-05-21T01:22:07.226Z,17.70
2023-05-21T01:24:35.121Z,18.00
2023-05-21T01:27:03.204Z,18.20
2023-05-21T01:29:29.774Z,18.30
2023-05-21T01:32:03.065Z,18.30
2023-05-21T01:35:01.194Z,18.10
2023-05-21T01:37:38.177Z,18.20
2023-05-21T01:40:11.131Z,18.00
2023-05-21T01:42:39.234Z,18.10
2023-05-21T01:45:07.916Z,18.20
2023-05-21T01:47:34.915Z,18.20
2023-05-21T01:50:02.029Z,18.20
2023-05-21T01:52:28.680Z,18.10
2023-05-21T01:54:56.921Z,18.10
2023-05-21T01:57:23.661Z,17.90
2023-05-21T01:59:50.289Z,18.00
2023-05-21T02:02:17.036Z,17.70
2023-05-21T02:04:44.139Z,17.70
2023-05-21T02:07:10.730Z,17.80
2023-05-21T02:09:37.422Z,17.90
2023-05-21T02:12:04.407Z,18.00
2023-05-21T02:14:33.634Z,17.80
2023-05-21T02:17:00.874Z,17.50
2023-05-21T02:19:27.840Z,17.40
2023-05-21T02:21:54.545Z,17.40
2023-05-21T02:24:22.212Z,17.60
2023-05-21T02:26:50.413Z,17.40
2023-05-21T02:29:17.202Z,17.50
2023-05-21T02:31:43.797Z,17.50
2023-05-21T02:34:10.529Z,17.30
2023-05-21T02:36:37.129Z,17.70
2023-05-21T02:39:03.831Z,17.70
2023-05-21T02:41:30.475Z,17.70
2023-05-21T02:43:57.049Z,17.70
2023-05-21T02:46:23.893Z,17.50
2023-05-21T02:48:52.300Z,17.70
2023-05-21T02:51:18.911Z,17.80
2023-05-21T02:53:45.750Z,17.60
2023-05-21T02:56:13.112Z,17.70
2023-05-21T02:58:39.677Z,17.60
2023-05-21T03:01:06.283Z,17.50
2023-05-21T03:03:33.009Z,17.50
2023-05-21T03:05:59.948Z,17.40
2023-05-21T03:08:26.888Z,17.30
2023-05-21T03:10:53.462Z,17.50
2023-05-21T03:13:20.396Z,17.40
2023-05-21T03:15:48.203Z,17.50
2023-05-21T03:18:14.797Z,17.60
2023-05-21T03:20:43.754Z,17.60
2023-05-21T03:23:14.779Z,17.10
2023-05-21T03:25:43.295Z,17.20
2023-05-21T03:28:10.348Z,17.30
2023-05-21T03:30:46.384Z,17.40
2023-05-21T03:33:31.946Z,17.60
2023-05-21T03:36:00.736Z,17.70
2023-05-21T03:38:31.337Z,17.70
2023-05-21T03:40:58.041Z,17.60
2023-05-21T03:43:24.858Z,17.40
2023-05-21T03:45:51.763Z,17.60
2023-05-21T03:48:37.150Z,17.60
2023-05-21T03:51:04.037Z,17.60
2023-05-21T03:53:33.900Z,17.20
2023-05-21T03:56:00.881Z,17.20
2023-05-21T03:58:28.384Z,17.30
2023-05-21T04:00:54.984Z,17.40
2023-05-21T04:03:21.779Z,17.50
2023-05-21T04:05:49.470Z,17.40
2023-05-21T04:08:16.301Z,17.70
2023-05-21T04:10:43.115Z,17.40
2023-05-21T04:13:09.732Z,17.50
2023-05-21T04:15:36.542Z,17.50
2023-05-21T04:18:03.464Z,17.30
2023-05-21T04:20:30.042Z,17.30
2023-05-21T04:22:56.742Z,17.40
2023-05-21T04:25:23.699Z,17.40
2023-05-21T04:27:50.286Z,17.20
2023-05-21T04:30:19.937Z,17.20
2023-05-21T04:32:48.220Z,17.20
2023-05-21T04:35:15.308Z,17.20
2023-05-21T04:37:42.159Z,17.20
2023-05-21T04:40:09.815Z,17.30
2023-05-21T04:42:36.564Z,17.40
2023-05-21T04:45:04.168Z,17.70
2023-05-21T04:47:35.388Z,17.60
2023-05-21T04:50:04.261Z,17.80
2023-05-21T04:52:31.669Z,17.80
2023-05-21T04:54:58.857Z,17.70
2023-05-21T04:57:25.486Z,17.50
2023-05-21T04:59:52.698Z,17.70
2023-05-21T05:02:19.494Z,17.90
2023-05-21T05:04:46.469Z,17.90
2023-05-21T05:07:13.545Z,18.20
2023-05-21T05:09:40.113Z,17.90
2023-05-21T05:12:07.091Z,17.90
2023-05-21T05:14:33.767Z,18.00
2023-05-21T05:17:00.435Z,18.20
2023-05-21T05:19:28.045Z,18.20
2023-05-21T05:21:54.840Z,18.20
2023-05-21T05:24:21.590Z,18.20
2023-05-21T05:26:48.454Z,18.20
2023-05-21T05:29:16.012Z,18.40
2023-05-21T05:31:42.757Z,18.40
2023-05-21T05:34:09.427Z,18.50
2023-05-21T05:36:36.100Z,18.60
2023-05-21T05:39:03.402Z,18.90
2023-05-21T05:41:30.096Z,18.80
2023-05-21T05:43:56.744Z,18.90
2023-05-21T05:46:26.420Z,18.80
2023-05-21T05:48:53.058Z,18.80
2023-05-21T05:51:19.715Z,19.00
2023-05-21T05:53:46.505Z,18.90
2023-05-21T05:56:13.145Z,19.10
2023-05-21T05:58:40.178Z,19.00
2023-05-21T06:01:10.774Z,19.00
2023-05-21T06:03:37.830Z,19.00
2023-05-21T06:06:13.966Z,19.10
2023-05-21T06:08:40.801Z,19.20
2023-05-21T06:11:07.491Z,19.40
2023-05-21T06:13:34.332Z,19.50
2023-05-21T06:16:02.061Z,19.40
2023-05-21T06:18:28.826Z,19.60
2023-05-21T06:20:55.510Z,19.60
2023-05-21T06:23:23.285Z,19.50
2023-05-21T06:25:49.967Z,19.50
2023-05-21T06:28:17.743Z,19.70
2023-05-21T06:30:44.533Z,19.70
2023-05-21T06:33:11.596Z,19.70
2023-05-21T06:35:39.857Z,19.80
2023-05-21T06:38:08.208Z,20.20
2023-05-21T06:40:35.440Z,20.10
2023-05-21T06:43:04.770Z,20.20
2023-05-21T06:45:57.478Z,20.30
2023-05-21T06:48:45.951Z,20.40
2023-05-21T06:51:13.188Z,20.40
2023-05-21T06:53:40.067Z,20.40
2023-05-21T06:56:06.954Z,20.40
2023-05-21T06:58:39.975Z,20.40
2023-05-21T07:01:06.735Z,20.40
2023-05-21T07:03:33.465Z,20.60
2023-05-21T07:06:00.114Z,20.40
2023-05-21T07:08:27.238Z,20.40
2023-05-21T07:10:56.302Z,20.30
2023-05-21T07:13:23.001Z,20.40
2023-05-21T07:15:49.601Z,20.60
2023-05-21T07:18:16.842Z,20.40
2023-05-21T07:20:44.440Z,20.50
2023-05-21T07:23:14.730Z,20.40
2023-05-21T07:25:41.377Z,20.50
2023-05-21T07:28:07.979Z,20.60
2023-05-21T07:30:35.427Z,20.70
2023-05-21T07:33:04.426Z,20.90
2023-05-21T07:35:31.237Z,21.00
2023-05-21T07:37:57.953Z,21.30
2023-05-21T07:40:24.690Z,21.10
2023-05-21T07:42:52.134Z,21.30
2023-05-21T07:45:20.379Z,21.40
2023-05-21T07:47:47.247Z,21.90
2023-05-21T07:50:15.821Z,22.00
2023-05-21T07:52:42.610Z,22.40
2023-05-21T07:55:10.152Z,22.50
2023-05-21T07:57:39.161Z,22.40
2023-05-21T08:00:15.704Z,22.60
2023-05-21T08:02:52.979Z,22.70
2023-05-21T08:05:21.352Z,22.90
2023-05-21T08:07:48.729Z,22.90
2023-05-21T08:10:16.690Z,23.10
2023-05-21T08:12:45.372Z,23.20
2023-05-21T08:15:12.638Z,23.20
2023-05-21T08:17:43.699Z,23.30
2023-05-21T08:20:11.149Z,23.50
2023-05-21T08:22:38.695Z,23.60
2023-05-21T08:25:08.522Z,23.50
2023-05-21T08:27:35.446Z,23.70
2023-05-21T08:30:03.488Z,24.00
2023-05-21T08:32:30.723Z,24.20
2023-05-21T08:34:58.191Z,24.20
2023-05-21T08:38:02.960Z,24.30
2023-05-21T08:40:51.609Z,24.70
2023-05-21T08:43:18.306Z,24.80
2023-05-21T08:45:54.852Z,24.80
2023-05-21T08:48:24.569Z,25.00
2023-05-21T08:50:52.966Z,25.20
2023-05-21T08:53:30.739Z,25.30
2023-05-21T08:55:58.620Z,25.60
2023-05-21T08:58:43.837Z,25.80
2023-05-21T09:01:12.386Z,25.50
2023-05-21T09:03:43.337Z,25.70
2023-05-21T09:06:14.100Z,25.90
2023-05-21T09:08:48.022Z,26.10
2023-05-21T09:11:19.422Z,26.30
2023-05-21T09:13:54.164Z,26.30
2023-05-21T09:16:28.145Z,26.30
2023-05-21T09:18:55.259Z,26.80
2023-05-21T09:21:33.199Z,26.90
2023-05-21T09:24:14.040Z,27.10
2023-05-21T09:26:44.660Z,27.30
2023-05-21T09:29:13.454Z,27.30
2023-05-21T09:31:46.561Z,26.90
2023-05-21T09:34:14.228Z,26.70
2023-05-21T09:36:44.036Z,26.90
2023-05-21T09:39:16.332Z,26.80
2023-05-21T09:41:43.643Z,26.80
2023-05-21T09:44:10.704Z,26.90
2023-05-21T09:46:39.692Z,27.20
2023-05-21T09:49:07.553Z,27.20
2023-05-21T09:51:39.013Z,27.40
2023-05-21T09:54:05.789Z,27.20
2023-05-21T09:56:32.755Z,27.00
2023-05-21T09:59:06.705Z,27.20
2023-05-21T10:01:34.333Z,26.80
2023-05-21T10:04:03.250Z,27.20
2023-05-21T10:06:31.279Z,27.60
2023-05-21T10:09:01.111Z,27.90
2023-05-21T10:11:31.457Z,28.30
2023-05-21T10:14:01.503Z,28.60
2023-05-21T10:16:28.848Z,28.70
2023-05-21T10:18:55.742Z,28.70
2023-05-21T10:21:23.431Z,28.70
2023-05-21T10:23:51.150Z,28.50
2023-05-21T10:26:19.850Z,28.40
2023-05-21T10:28:49.639Z,28.50
2023-05-21T10:31:16.782Z,28.40
2023-05-21T10:33:43.788Z,28.70
2023-05-21T10:36:10.619Z,29.00
2023-05-21T10:38:38.657Z,29.40
2023-05-21T10:41:06.853Z,29.80
2023-05-21T10:43:52.114Z,29.70
2023-05-21T10:46:47.983Z,29.80
2023-05-21T10:49:52.319Z,29.90
2023-05-21T10:52:36.239Z,29.80
2023-05-21T10:55:27.651Z,30.50
2023-05-21T10:58:12.778Z,30.80
2023-05-21T11:00:39.770Z,31.10
2023-05-21T11:03:07.323Z,31.20
2023-05-21T11:06:02.149Z,30.80
2023-05-21T11:08:31.791Z,30.90
2023-05-21T11:10:59.837Z,31.30
2023-05-21T11:13:27.339Z,31.10
2023-05-21T11:16:05.065Z,31.20
2023-05-21T11:18:40.336Z,31.30
2023-05-21T11:21:12.513Z,30.90
2023-05-21T11:23:51.563Z,30.60
2023-05-21T11:26:22.421Z,30.50
2023-05-21T11:29:04.331Z,30.80
2023-05-21T11:31:38.308Z,30.30
2023-05-21T11:34:11.282Z,30.30
2023-05-21T11:36:39.659Z,30.50
2023-05-21T11:39:13.004Z,30.50
2023-05-21T11:41:51.614Z,30.20
2023-05-21T11:44:18.277Z,30.20
2023-05-21T11:46:44.914Z,29.60
2023-05-21T11:49:12.250Z,29.10
2023-05-21T11:51:40.653Z,29.30
2023-05-21T11:54:09.133Z,29.70
2023-05-21T11:56:36.803Z,29.70
2023-05-21T11:59:03.416Z,29.90
2023-05-21T12:01:31.220Z,30.10
2023-05-21T12:03:57.898Z,29.90
2023-05-21T12:06:27.636Z,30.10
2023-05-21T12:08:58.183Z,30.30
2023-05-21T12:11:24.934Z,30.70
2023-05-21T12:13:51.543Z,31.10
2023-05-21T12:16:18.239Z,31.00
2023-05-21T12:18:45.016Z,31.00
2023-05-21T12:21:12.616Z,31.00
2023-05-21T12:23:39.384Z,31.80
2023-05-21T12:26:06.140Z,31.80
2023-05-21T12:28:32.711Z,31.80
2023-05-21T12:30:59.309Z,31.50
2023-05-21T12:33:33.999Z,31.30
2023-05-21T12:36:00.610Z,31.30
2023-05-21T12:38:31.366Z,31.20
2023-05-21T12:41:04.481Z,30.20
2023-05-21T12:43:32.605Z,30.00
2023-05-21T12:45:59.275Z,30.40
2023-05-21T12:48:26.045Z,30.60
2023-05-21T12:50:52.763Z,30.30
2023-05-21T12:53:19.418Z,30.50
2023-05-21T12:55:46.186Z,30.60
2023-05-21T12:58:14.066Z,30.50
2023-05-21T13:00:42.940Z,30.60
2023-05-21T13:03:09.682Z,30.50
2023-05-21T13:05:40.332Z,30.70
2023-05-21T13:08:06.924Z,30.90
2023-05-21T13:10:33.545Z,30.70
2023-05-21T13:13:00.331Z,30.70
2023-05-21T13:15:27.440Z,30.60
2023-05-21T13:17:58.004Z,30.80
2023-05-21T13:20:27.039Z,30.90
2023-05-21T13:22:54.035Z,30.90
2023-05-21T13:25:29.867Z,31.00
2023-05-21T13:27:57.326Z,31.30
2023-05-21T13:30:23.930Z,31.30
2023-05-21T13:32:52.138Z,31.40
2023-05-21T13:35:18.886Z,31.20
2023-05-21T13:37:45.962Z,31.60
2023-05-21T13:40:15.040Z,31.40
2023-05-21T13:42:42.991Z,31.40
2023-05-21T13:45:11.818Z,31.40
2023-05-21T13:47:40.480Z,31.10
2023-05-21T13:50:08.368Z,31.20
2023-05-21T13:52:35.817Z,31.10
2023-05-21T13:55:02.466Z,31.00
2023-05-21T13:57:30.825Z,31.10
2023-05-21T13:59:57.896Z,30.90
2023-05-21T14:02:24.719Z,31.20
2023-05-21T14:04:51.448Z,30.70
2023-05-21T14:07:18.116Z,30.40
2023-05-21T14:09:44.707Z,30.60
2023-05-21T14:12:11.838Z,30.50
2023-05-21T14:14:38.507Z,30.60
2023-05-21T14:17:06.392Z,30.90
2023-05-21T14:19:33.111Z,31.00
2023-05-21T14:21:59.941Z,31.10
2023-05-21T14:24:26.660Z,30.90
2023-05-21T14:26:53.243Z,30.60
2023-05-21T14:29:19.909Z,30.20
2023-05-21T14:31:46.621Z,30.00
2023-05-21T14:34:19.648Z,29.90
2023-05-21T14:36:52.157Z,29.60
2023-05-21T14:39:29.541Z,29.70
2023-05-21T14:41:56.448Z,29.50
2023-05-21T14:44:23.169Z,28.80
2023-05-21T14:46:49.886Z,28.40
2023-05-21T14:49:16.592Z,28.60
2023-05-21T14:51:43.625Z,28.40
2023-05-21T14:54:10.208Z,28.50
2023-05-21T14:56:36.857Z,28.30
2023-05-21T14:59:03.419Z,28.10
2023-05-21T15:01:30.151Z,28.20
2023-05-21T15:03:58.562Z,28.10
2023-05-21T15:06:25.536Z,27.90
2023-05-21T15:08:53.077Z,28.20
2023-05-21T15:11:19.631Z,28.10
2023-05-21T15:13:46.413Z,28.10
2023-05-21T15:16:13.109Z,28.00
2023-05-21T15:18:39.751Z,27.90
2023-05-21T15:21:06.426Z,28.00
2023-05-21T15:23:33.213Z,27.90
2023-05-21T15:25:59.752Z,28.00
2023-05-21T15:28:26.405Z,27.80
2023-05-21T15:30:53.010Z,27.90
2023-05-21T15:33:19.582Z,27.90
2023-05-21T15:35:46.327Z,27.90
2023-05-21T15:38:13.061Z,27.70
2023-05-21T15:40:41.880Z,27.60
2023-05-21T15:43:08.697Z,27.70
2023-05-21T15:45:35.476Z,27.80
2023-05-21T15:48:02.258Z,27.80
2023-05-21T15:50:29.112Z,27.60
2023-05-21T15:52:55.720Z,27.50
2023-05-21T15:55:22.384Z,27.60
2023-05-21T15:57:49.045Z,27.60
2023-05-21T16:00:15.880Z,27.70
2023-05-21T16:02:50.565Z,27.60
2023-05-21T16:05:26.368Z,27.70
2023-05-21T16:07:53.019Z,27.80
2023-05-21T16:10:19.614Z,27.90
2023-05-21T16:12:46.242Z,27.60
2023-05-21T16:15:12.897Z,27.70
2023-05-21T16:17:39.547Z,27.80
2023-05-21T16:20:07.375Z,27.90
2023-05-21T16:22:33.912Z,27.90
2023-05-21T16:25:00.556Z,27.80
2023-05-21T16:27:27.080Z,27.50
2023-05-21T16:29:53.651Z,27.40
2023-05-21T16:32:20.305Z,27.60
2023-05-21T16:34:46.927Z,27.50
2023-05-21T16:37:13.456Z,27.40
2023-05-21T16:39:40.021Z,27.40
2023-05-21T16:42:06.590Z,27.50
2023-05-21T16:44:33.124Z,27.60
2023-05-21T16:47:00.346Z,27.60
2023-05-21T16:49:27.509Z,27.40
2023-05-21T16:51:54.106Z,27.40
2023-05-21T16:54:21.082Z,27.30
2023-05-21T16:56:47.638Z,27.30
2023-05-21T16:59:14.258Z,27.40
2023-05-21T17:01:42.148Z,27.40
2023-05-21T17:04:08.829Z,27.30
2023-05-21T17:06:35.470Z,27.10
2023-05-21T17:09:02.956Z,27.20
2023-05-21T17:11:30.585Z,27.30
2023-05-21T17:13:57.256Z,27.20
2023-05-21T17:16:25.246Z,27.10
2023-05-21T17:18:52.055Z,27.10
2023-05-21T17:21:19.258Z,27.10
2023-05-21T17:23:45.890Z,27.20
2023-05-21T17:26:13.246Z,27.10
2023-05-21T17:28:39.828Z,27.10
2023-05-21T17:31:08.241Z,27.00
2023-05-21T17:33:34.825Z,27.00
2023-05-21T17:36:02.069Z,26.90
2023-05-21T17:38:28.700Z,26.90
2023-05-21T17:40:55.571Z,26.90
2023-05-21T17:43:22.217Z,26.80
2023-05-21T17:45:48.785Z,26.80
2023-05-21T17:48:15.338Z,27.00
2023-05-21T17:50:42.115Z,26.80
2023-05-21T17:53:08.757Z,26.60
2023-05-21T17:55:35.699Z,26.50
2023-05-21T17:58:02.526Z,26.40
2023-05-21T18:00:29.148Z,26.40
2023-05-21T18:02:55.813Z,26.40
2023-05-21T18:05:22.800Z,26.50
2023-05-21T18:07:49.442Z,26.40
2023-05-21T18:10:16.139Z,26.40
2023-05-21T18:12:43.697Z,26.50
2023-05-21T18:15:10.541Z,26.40
2023-05-21T18:17:37.216Z,26.30
2023-05-21T18:20:04.761Z,26.30
2023-05-21T18:22:31.371Z,26.10
2023-05-21T18:24:58.187Z,26.10
2023-05-21T18:27:25.371Z,26.10
2023-05-21T18:29:52.248Z,26.00
2023-05-21T18:32:18.912Z,25.90
2023-05-21T18:34:45.574Z,26.10
2023-05-21T18:37:12.210Z,26.10
2023-05-21T18:39:38.782Z,26.10
2023-05-21T18:44:38.607Z,26.10
2023-05-21T18:47:05.854Z,26.10
2023-05-21T18:49:35.226Z,26.20
2023-05-21T18:52:01.951Z,26.00
2023-05-21T18:54:28.527Z,25.90
2023-05-21T18:56:55.417Z,25.80
2023-05-21T18:59:22.024Z,25.60
2023-05-21T19:01:48.700Z,25.70
2023-05-21T19:04:16.004Z,25.70
2023-05-21T19:06:42.578Z,25.70
2023-05-21T19:09:09.234Z,25.60
2023-05-21T19:11:37.329Z,25.40
2023-05-21T19:14:04.359Z,25.50
2023-05-21T19:16:31.237Z,25.70
2023-05-21T19:18:58.032Z,25.50
2023-05-21T19:21:25.186Z,25.50
2023-05-21T19:23:53.563Z,25.40
2023-05-21T19:26:22.408Z,25.40
2023-05-21T19:28:52.973Z,25.40
2023-05-21T19:31:20.527Z,25.30
2023-05-21T19:33:47.245Z,25.30
2023-05-21T19:36:14.459Z,25.20
2023-05-21T19:38:50.311Z,25.30
2023-05-21T19:41:17.575Z,25.40
2023-05-21T19:43:44.922Z,25.40
2023-05-21T19:46:11.657Z,25.30
2023-05-21T19:48:38.426Z,25.20
2023-05-21T19:51:05.019Z,25.30
2023-05-21T19:53:31.668Z,25.30
2023-05-21T19:55:58.229Z,25.30
2023-05-21T19:58:26.822Z,25.20
2023-05-21T20:00:58.224Z,25.30
2023-05-21T20:03:26.224Z,25.40
2023-05-21T20:05:52.877Z,25.40
2023-05-21T20:08:19.480Z,25.40
2023-05-21T20:10:47.129Z,25.20
2023-05-21T20:13:15.520Z,25.00
2023-05-21T20:15:42.218Z,25.00
2023-05-21T20:18:08.910Z,25.10
2023-05-21T20:20:38.003Z,25.30
2023-05-21T20:23:04.884Z,25.00
2023-05-21T20:25:31.526Z,24.80
2023-05-21T20:27:58.561Z,24.60
2023-05-21T20:30:32.303Z,24.80
2023-05-21T20:33:03.674Z,24.70
2023-05-21T20:35:30.616Z,24.50
2023-05-21T20:37:57.491Z,24.40
2023-05-21T20:40:24.110Z,24.60
2023-05-21T20:42:52.986Z,24.60
2023-05-21T20:45:20.689Z,24.80
2023-05-21T20:47:48.111Z,24.70
2023-05-21T20:50:17.271Z,24.70
2023-05-21T20:52:46.891Z,24.40
2023-05-21T20:55:14.567Z,24.50
2023-05-21T20:57:41.474Z,24.60
2023-05-21T21:00:10.915Z,24.70
2023-05-21T21:02:38.632Z,24.40
2023-05-21T21:05:06.043Z,24.30
2023-05-21T21:07:34.017Z,24.00
2023-05-21T21:10:01.377Z,23.90
2023-05-21T21:12:28.151Z,24.00
2023-05-21T21:14:54.975Z,24.00
2023-05-21T21:17:21.668Z,24.10
2023-05-21T21:19:48.404Z,24.00
2023-05-21T21:22:15.972Z,23.60
2023-05-21T21:24:42.672Z,23.60
2023-05-21T21:27:09.261Z,23.70
2023-05-21T21:29:35.826Z,23.70
2023-05-21T21:32:02.421Z,23.60
2023-05-21T21:34:29.039Z,23.80
2023-05-21T21:36:55.777Z,23.80
2023-05-21T21:39:22.452Z,23.70
2023-05-21T21:41:49.022Z,23.90
2023-05-21T21:44:15.704Z,23.50
2023-05-21T21:46:42.361Z,23.70
2023-05-21T21:49:08.957Z,23.70
2023-05-21T21:51:36.838Z,23.80
2023-05-21T21:54:03.743Z,23.90
2023-05-21T21:56:30.598Z,23.90
2023-05-21T21:58:57.200Z,23.50
2023-05-21T22:01:26.823Z,23.50
2023-05-21T22:03:53.620Z,23.50
2023-05-21T22:06:20.454Z,23.50
2023-05-21T22:08:47.158Z,23.50
2023-05-21T22:11:13.796Z,23.60
2023-05-21T22:13:41.697Z,23.70
2023-05-21T22:16:08.252Z,23.60
2023-05-21T22:18:40.982Z,23.80
2023-05-21T22:21:09.795Z,23.60
2023-05-21T22:23:37.214Z,23.60
2023-05-21T22:26:03.976Z,23.70
2023-05-21T22:28:30.662Z,23.70
2023-05-21T22:30:57.275Z,23.70
2023-05-21T22:33:24.273Z,23.70
2023-05-21T22:35:51.118Z,23.70
2023-05-21T22:38:17.928Z,23.70
2023-05-21T22:40:44.539Z,23.60
2023-05-21T22:43:11.175Z,23.30
2023-05-21T22:45:38.376Z,23.20
2023-05-21T22:48:08.442Z,23.40
2023-05-21T22:50:35.913Z,23.50
2023-05-21T22:53:02.702Z,23.60
2023-05-21T22:55:29.356Z,23.60
2023-05-21T22:57:55.906Z,23.40
2023-05-21T23:00:22.666Z,23.50
2023-05-21T23:02:51.394Z,23.50
2023-05-21T23:05:19.814Z,23.40
2023-05-21T23:07:46.508Z,23.60
2023-05-21T23:10:13.106Z,23.40
2023-05-21T23:12:40.794Z,23.10
2023-05-21T23:15:09.736Z,23.10
2023-05-21T23:17:37.169Z,23.50
2023-05-21T23:20:04.657Z,23.20
2023-05-21T23:22:31.584Z,23.10
2023-05-21T23:24:58.159Z,23.30
2023-05-21T23:27:24.704Z,23.30
2023-05-21T23:29:51.294Z,23.20
2023-05-21T23:32:17.990Z,23.30
2023-05-21T23:34:44.697Z,23.10
2023-05-21T23:37:11.346Z,23.40
2023-05-21T23:39:38.047Z,23.30
2023-05-21T23:42:05.124Z,23.30
2023-05-21T23:44:31.733Z,23.20
2023-05-21T23:46:58.384Z,23.10
2023-05-21T23:49:25.023Z,23.10
2023-05-21T23:51:51.733Z,23.20
2023-05-21T23:54:18.495Z,23.20
2023-05-21T23:56:45.316Z,23.10
2023-05-21T23:59:11.949Z,23.00
